AirNav   Duncan Aviation - Near you to keep you flying
 
 1489 users online  

OK28 McDaniel Aviation Airport
Ravia, Oklahoma, USA

GOING TO RAVIA?


FAA INFORMATION EFFECTIVE 03 NOVEMBER 2022

Location

FAA Identifier: OK28
Lat/Long: 34-13-45.0000N 096-44-57.0000W
34-13.750000N 096-44.950000W
34.2291667,-96.7491667
(estimated)
Elevation: 700 ft. / 213 m (estimated)
From city: 3 miles E of RAVIA, OK
Time zone: UTC -6 (UTC -5 during Daylight Saving Time)
Zip code: 73447

Airport Operations

Airport use: Private use. Permission required prior to landing
Activation date: 01/1983
Control tower: no
ARTCC: FORT WORTH CENTER
FSS: FORT WORTH FLIGHT SERVICE STATION
Attendance: UNATNDD
Wind indicator: yes
Segmented circle: no
Lights: LIRL RY 17/35 DUSK TO 2200.

Airport Communications

WX AWOS-3 at ADM (14 nm W): 125.6 (580-389-5078)
WX AWOS-3 at 1F0 (19 nm W): 118.15 (580-226-1536)

Nearby radio navigation aids

VOR radial/distance  VOR name  Freq  Var
ADMr081/20.8ARDMORE VORTAC116.7006E

 
NDB name  Hdg/Dist  Freq  Var  ID
ADDMO085/9.140006EAI .- ..
DENISON345/24.534106EDNI -.. -. ..

Airport Services

Runway Information

Runway 17/35

Dimensions: 3500 x 100 ft. / 1067 x 30 m
Surface: turf
Runway edge lights: low intensity
RUNWAY 17  RUNWAY 35
Traffic pattern: rightleft
Obstructions: none35 ft. pline, 100 ft. from runway

Airport Ownership and Management from official FAA records

Ownership: Privately-owned
Owner: DONALD MCDANIEL
7000 WEST COBB RD
TISHOMINGO, OK 73460
Phone 580-371-5013
Manager: DONALD MCDANIEL
7000 WEST COBB RD
TISHOMINGO, OK 73460
Phone 580-371-5013

Airport Operational Statistics

Aircraft based on the field: 4
Single engine airplanes: 2
Multi engine airplanes: 1
Helicopters: 1
    

Additional Remarks

FOR CD CTC FORT WORTH ARTCC AT 817-858-7584.

Instrument Procedures

There are no published instrument procedures at OK28.

Some nearby airports with instrument procedures:

1F4 - Madill Municipal Airport (6 nm SW)
KADM - Ardmore Municipal Airport (14 nm W)
1F0 - Ardmore Downtown Executive Airport (19 nm W)
KDUA - Durant Regional Airport - Eaker Field (25 nm SE)
KGYI - North Texas Regional Airport/Perrin Field (31 nm S)
 
Loc | Ops | Rwys | IFR | FBO | Links
Com | Nav | Svcs | Stats | Notes
Aerial photo
No photo
 
Sectional chart

 
Airport distance calculator
Flying to McDaniel Aviation Airport? Find the distance to fly.

From to OK28

Sunrise and sunset
Times for 29-Nov-2022
 Local
(UTC-6)
 Zulu
(UTC)
Morning civil twilight06:4712:47
Sunrise07:1413:14
Sunset17:1723:17
Evening civil twilight17:4423:44

Current date and time
Zulu (UTC)  29-Nov-2022 17:48:55
Local (UTC-6)  29-Nov-2022 11:48:55
 
METAR
KADM 
14nm W 
291650Z 22011G18KT 10SM CLR 22/13 A2968
K1F0 
19nm W 
291735Z AUTO 22011G18KT 10SM CLR 23/12 A2968 RMK AO2 T02290116
KDUA 
24nm SE 
291735Z AUTO 22018G24KT 10SM CLR 23/13 A2971 RMK AO2
TAF
NOTAMs
Click for the latest NOTAMs
NOTAMs are issued by the DoD/FAA and will open in a separate window not controlled by AirNav.

 

 
 

Would you like to see your business listed on this page?

 If your business provides an interesting product or service to pilots, flight crews, aircraft, or users of the McDaniel Aviation Airport, you should consider listing it here.  To start the listing process, click on the button below
 
Add a business
 

Other Pages about McDaniel Aviation Airport

Update a link
 
Copyright © AirNav, LLC. All rights reserved. Privacy Policy  Contact